Time;durP1;ratioP1;P1;durP2;ratioP2;P2;SDS_P1;SDS_P2;PMS_P1;PMS_P2;Temp;Humidity;BMP_temperature;BMP_pressure;BME280_temperature;BME280_humidity;BME280_pressure;Samples;Min_cycle;Max_cycle;Signal;HPM_P1;HPM_P2
2022/03/18 00:01:43;;;;;;;22.10;12.50;;;;;;;0.65;47.51;102869.44;88476;1270;89225;-68
2022/03/18 00:03:52;;;;;;;20.80;12.60;;;;;;;0.61;47.56;102874.04;88456;1271;93623;-66
2022/03/18 00:06:04;;;;;;;19.70;12.20;;;;;;;0.56;47.67;102872.44;88427;1271;77984;-65
2022/03/18 00:08:16;;;;;;;21.50;13.20;;;;;;;0.55;47.69;102874.80;88457;1271;81579;-67
2022/03/18 00:10:25;;;;;;;22.10;12.70;;;;;;;0.52;47.76;102876.55;88459;1271;98054;-64
2022/03/18 00:12:34;;;;;;;21.30;12.10;;;;;;;0.48;47.69;102882.02;88453;1270;89028;-64
2022/03/18 00:14:44;;;;;;;21.20;12.50;;;;;;;0.45;47.78;102886.06;88440;1271;94145;-64
2022/03/18 00:16:52;;;;;;;18.80;12.60;;;;;;;0.45;47.97;102884.48;88446;1271;80819;-70
2022/03/18 00:19:04;;;;;;;22.80;12.40;;;;;;;0.45;47.81;102886.58;88456;1271;81879;-64
2022/03/18 00:21:14;;;;;;;22.20;11.80;;;;;;;0.42;48.00;102892.73;88468;1271;99502;-66
2022/03/18 00:23:26;;;;;;;20.40;13.20;;;;;;;0.40;48.25;102892.11;88487;1270;88692;-64
2022/03/18 00:25:35;;;;;;;21.40;12.30;;;;;;;0.41;48.26;102893.15;88470;1271;94245;-67
2022/03/18 00:27:46;;;;;;;20.10;12.00;;;;;;;0.37;47.99;102894.00;88434;1271;78737;-66
2022/03/18 00:29:56;;;;;;;20.50;11.80;;;;;;;0.31;48.12;102901.52;88472;1271;82269;-67
2022/03/18 00:32:05;;;;;;;18.10;11.70;;;;;;;0.27;48.22;102895.66;88457;1271;98921;-67
2022/03/18 00:34:14;;;;;;;18.80;12.10;;;;;;;0.25;48.41;102893.43;88463;1271;88841;-67
2022/03/18 00:36:26;;;;;;;19.90;12.20;;;;;;;0.22;48.47;102892.86;88472;1271;95896;-67
2022/03/18 00:38:35;;;;;;;21.70;12.40;;;;;;;0.18;48.57;102892.85;88441;1271;77021;-67
2022/03/18 00:40:48;;;;;;;18.00;11.80;;;;;;;0.14;48.75;102895.69;88442;1271;79712;-66
2022/03/18 00:42:57;;;;;;;14.70;9.40;;;;;;;0.10;48.72;102897.25;88432;1271;98409;-67
2022/03/18 00:45:08;;;;;;;22.00;12.60;;;;;;;0.05;48.75;102899.04;88445;1271;88406;-68
2022/03/18 00:52:14;;;;;;;21.20;12.80;;;;;;;-0.09;49.26;102906.52;88465;1271;81436;-63
2022/03/18 00:54:23;;;;;;;20.10;12.10;;;;;;;-0.16;49.07;102905.39;88463;1271;98975;-64
2022/03/18 00:56:32;;;;;;;17.70;11.30;;;;;;;-0.26;49.47;102905.42;88463;1270;88271;-64
2022/03/18 00:58:42;;;;;;;21.80;11.80;;;;;;;-0.34;49.55;102906.10;88396;1271;94803;-64
2022/03/18 01:00:54;;;;;;;19.00;12.20;;;;;;;-0.40;49.76;102905.26;88460;1271;78439;-64
2022/03/18 01:03:08;;;;;;;20.90;12.00;;;;;;;-0.45;49.77;102899.95;88453;1269;80610;-64
2022/03/18 01:05:20;;;;;;;20.00;12.20;;;;;;;-0.50;50.09;102898.20;88431;1271;99680;-64
2022/03/18 01:07:30;;;;;;;20.80;11.60;;;;;;;-0.57;50.27;102896.88;88495;1271;88163;-64
2022/03/18 01:09:39;;;;;;;19.10;12.00;;;;;;;-0.64;50.42;102894.64;88413;1271;95428;-63
2022/03/18 01:11:48;;;;;;;23.10;12.30;;;;;;;-0.69;50.18;102894.48;88450;1271;78365;-65
2022/03/18 01:13:57;;;;;;;20.30;11.80;;;;;;;-0.76;50.53;102891.90;88418;1271;82873;-65
2022/03/18 01:16:06;;;;;;;18.40;11.10;;;;;;;-0.83;51.01;102895.02;88472;1271;99484;-64
2022/03/18 01:18:18;;;;;;;23.30;12.90;;;;;;;-0.83;50.80;102894.30;88477;1271;87474;-65
2022/03/18 01:20:27;;;;;;;20.60;12.50;;;;;;;-0.84;51.13;102896.63;88435;1271;95035;-65
2022/03/18 01:22:37;;;;;;;23.90;13.60;;;;;;;-0.84;51.10;102901.94;88385;1271;81270;-64
2022/03/18 01:24:46;;;;;;;29.70;13.40;;;;;;;-0.84;51.41;102901.94;88454;1271;83168;-68
2022/03/18 01:26:59;;;;;;;22.60;11.90;;;;;;;-0.89;51.24;102904.21;88449;1271;98230;-66
2022/03/18 01:29:08;;;;;;;17.80;11.80;;;;;;;-0.95;51.44;102909.06;88491;1271;87117;-66
2022/03/18 01:31:23;;;;;;;22.20;12.80;;;;;;;-0.97;51.46;102908.95;88437;1271;95753;-66
2022/03/18 01:33:33;;;;;;;22.40;12.60;;;;;;;-0.98;51.42;102907.95;88449;1271;79966;-66
2022/03/18 01:35:42;;;;;;;23.00;12.00;;;;;;;-1.02;51.69;102905.77;88436;1271;81386;-65
2022/03/18 01:37:55;;;;;;;21.40;12.90;;;;;;;-1.06;51.69;102908.59;88449;1271;99638;-67
2022/03/18 01:40:05;;;;;;;22.10;12.30;;;;;;;-1.10;51.99;102912.08;88411;1271;88003;-63
2022/03/18 01:42:17;;;;;;;22.20;13.20;;;;;;;-1.09;51.88;102913.64;88441;1271;94792;-63
2022/03/18 01:44:30;;;;;;;20.70;13.10;;;;;;;-1.12;52.00;102912.31;88410;1271;78745;-66
2022/03/18 01:46:39;;;;;;;21.60;13.20;;;;;;;-1.15;52.13;102912.95;88474;1271;81907;-66
2022/03/18 01:48:52;;;;;;;19.10;11.20;;;;;;;-1.12;52.53;102914.79;88434;1271;99499;-65
2022/03/18 01:51:01;;;;;;;22.30;13.20;;;;;;;-1.07;52.68;102913.92;88456;1271;88048;-66
2022/03/18 01:53:10;;;;;;;21.10;12.90;;;;;;;-1.10;52.26;102917.90;88468;1271;95418;-65
2022/03/18 01:55:21;;;;;;;21.20;12.80;;;;;;;-1.11;52.41;102914.59;88423;1270;77224;-66
2022/03/18 01:57:29;;;;;;;19.20;11.40;;;;;;;-1.11;52.76;102913.55;88464;1271;82495;-67
2022/03/18 01:59:42;;;;;;;21.50;12.90;;;;;;;-1.11;52.56;102913.17;88470;1270;97957;-65
2022/03/18 02:01:53;;;;;;;20.80;13.20;;;;;;;-1.14;52.56;102913.98;88453;1271;88494;-65
2022/03/18 02:04:02;;;;;;;22.50;12.10;;;;;;;-1.14;52.56;102919.29;88443;1271;95822;-64
2022/03/18 02:06:12;;;;;;;22.60;11.60;;;;;;;-1.16;52.69;102918.30;88430;1271;78731;-64
2022/03/18 02:08:22;;;;;;;18.80;12.00;;;;;;;-1.15;52.67;102916.66;88441;1271;82479;-66
2022/03/18 02:10:32;;;;;;;20.50;12.60;;;;;;;-1.15;52.62;102917.39;88441;1271;99518;-65
2022/03/18 02:12:42;;;;;;;19.60;11.70;;;;;;;-1.20;52.73;102915.95;88434;1271;86978;-65
2022/03/18 02:14:52;;;;;;;21.70;13.40;;;;;;;-1.25;52.84;102921.95;88450;1271;93885;-67
2022/03/18 02:17:02;;;;;;;20.70;11.80;;;;;;;-1.31;52.72;102920.04;88464;1271;78839;-67
2022/03/18 02:19:11;;;;;;;22.60;11.70;;;;;;;-1.34;53.02;102916.08;88471;1271;80669;-66
2022/03/18 02:21:20;;;;;;;20.50;11.60;;;;;;;-1.36;52.73;102918.98;88435;1271;99355;-67
2022/03/18 02:23:30;;;;;;;22.50;12.00;;;;;;;-1.42;53.25;102916.70;88452;1271;87026;-67
2022/03/18 02:25:42;;;;;;;19.10;11.80;;;;;;;-1.46;53.18;102922.13;88437;1271;94497;-63
2022/03/18 02:28:02;;;;;;;18.50;12.20;;;;;;;-1.49;53.22;102924.38;88452;1271;79089;-64
2022/03/18 02:30:13;;;;;;;19.10;11.70;;;;;;;-1.55;53.82;102929.15;88489;1269;80317;-72
2022/03/18 02:32:23;;;;;;;19.60;11.70;;;;;;;-1.64;53.65;102927.33;88468;1271;98763;-67
2022/03/18 02:34:36;;;;;;;19.10;12.10;;;;;;;-1.69;53.95;102926.46;88484;1271;88769;-67
2022/03/18 02:36:46;;;;;;;20.50;11.80;;;;;;;-1.70;54.15;102933.20;88448;1270;95289;-66
2022/03/18 02:38:59;;;;;;;18.30;12.00;;;;;;;-1.70;54.12;102937.09;88468;1270;78775;-65
2022/03/18 02:41:08;;;;;;;20.10;11.70;;;;;;;-1.72;54.15;102934.14;88486;1271;81536;-64
2022/03/18 02:43:20;;;;;;;20.40;11.60;;;;;;;-1.79;54.27;102936.64;88451;1271;99823;-64
2022/03/18 02:45:33;;;;;;;19.60;12.00;;;;;;;-1.82;54.47;102936.91;88434;1271;86666;-64
2022/03/18 02:47:42;;;;;;;17.70;12.50;;;;;;;-1.83;54.33;102938.73;88450;1271;94956;-63
2022/03/18 02:49:54;;;;;;;21.30;12.20;;;;;;;-1.89;54.74;102942.98;88442;1271;79988;-64
2022/03/18 02:52:04;;;;;;;20.70;12.60;;;;;;;-1.98;54.81;102948.20;88472;1271;82772;-65
2022/03/18 02:54:16;;;;;;;20.70;12.30;;;;;;;-2.07;54.99;102945.66;88494;1271;99035;-66
2022/03/18 02:56:25;;;;;;;23.80;12.30;;;;;;;-2.10;55.07;102947.52;88483;1271;88541;-68
2022/03/18 02:58:38;;;;;;;21.10;12.80;;;;;;;-2.13;55.38;102947.60;88494;1271;94937;-68
2022/03/18 03:00:47;;;;;;;18.70;11.40;;;;;;;-2.18;55.68;102952.70;88426;1271;79232;-64
2022/03/18 03:02:56;;;;;;;21.10;13.00;;;;;;;-2.23;55.53;102953.39;88472;1271;80874;-64
2022/03/18 03:10:01;;;;;;;21.80;12.10;;;;;;;-2.31;55.81;102965.27;88441;1271;93266;-64
2022/03/18 03:12:11;;;;;;;23.00;13.30;;;;;;;-2.37;56.20;102968.96;88052;1271;523632;-65
2022/03/18 03:14:20;;;;;;;22.40;12.60;;;;;;;-2.42;56.39;102965.92;88494;1271;80302;-67
2022/03/18 03:16:30;;;;;;;25.90;13.50;;;;;;;-2.48;56.58;102972.10;88433;1270;98525;-68
2022/03/18 03:18:39;;;;;;;23.00;13.40;;;;;;;-2.52;56.70;102972.56;88446;1270;89718;-73
2022/03/18 03:20:49;;;;;;;25.60;13.60;;;;;;;-2.56;56.81;102974.46;88482;1270;94470;-69
2022/03/18 03:22:58;;;;;;;25.00;14.30;;;;;;;-2.61;57.14;102980.06;88465;1271;78840;-68
2022/03/18 03:25:08;;;;;;;23.00;13.10;;;;;;;-2.66;57.35;102980.19;88476;1271;80017;-68
2022/03/18 03:27:17;;;;;;;25.00;13.80;;;;;;;-2.71;57.50;102976.99;88495;1271;100658;-69
2022/03/18 03:29:27;;;;;;;23.40;13.20;;;;;;;-2.76;57.47;102977.29;88469;1271;87215;-64
2022/03/18 03:31:35;;;;;;;21.90;13.10;;;;;;;-2.80;57.76;102976.19;88459;1271;95189;-65
2022/03/18 03:33:48;;;;;;;22.50;12.50;;;;;;;-2.83;57.84;102981.02;88441;1271;79781;-65
2022/03/18 03:35:58;;;;;;;22.20;12.80;;;;;;;-2.85;57.93;102985.29;88439;1271;82283;-65
2022/03/18 03:38:07;;;;;;;24.50;13.20;;;;;;;-2.86;58.08;102984.98;88454;1271;99600;-66
2022/03/18 03:40:19;;;;;;;21.70;12.50;;;;;;;-2.88;58.15;102984.49;88495;1271;88415;-68
2022/03/18 03:42:29;;;;;;;26.90;13.20;;;;;;;-2.88;58.18;102987.52;88459;1271;95462;-68
2022/03/18 03:44:37;;;;;;;21.90;13.80;;;;;;;-2.91;58.39;102988.64;88478;1271;77509;-69
2022/03/18 03:46:46;;;;;;;20.60;12.90;;;;;;;-2.97;58.57;102990.36;88477;1271;81420;-69
2022/03/18 03:48:59;;;;;;;28.70;15.80;;;;;;;-3.00;58.47;102991.69;88415;1271;97725;-67
2022/03/18 03:51:08;;;;;;;24.20;14.40;;;;;;;-3.02;58.70;102993.66;88470;1271;86553;-64
2022/03/18 03:53:17;;;;;;;25.80;13.50;;;;;;;-3.04;58.72;102996.36;88445;1271;94364;-66
2022/03/18 03:55:26;;;;;;;27.60;14.00;;;;;;;-3.03;59.14;102999.52;88450;1271;80987;-69
2022/03/18 03:57:36;;;;;;;21.70;13.80;;;;;;;-3.00;59.11;103004.55;88472;1271;82317;-71
2022/03/18 03:59:48;;;;;;;24.50;14.10;;;;;;;-2.96;59.13;102999.70;88487;1271;97941;-68
2022/03/18 04:01:58;;;;;;;36.70;17.80;;;;;;;-2.92;59.64;102999.96;88467;1270;87556;-66
2022/03/18 04:04:11;;;;;;;29.40;14.30;;;;;;;-2.89;59.26;103002.33;88490;1271;93770;-65
2022/03/18 04:06:20;;;;;;;22.30;13.50;;;;;;;-2.85;59.27;103004.88;88467;1271;79819;-67
2022/03/18 04:08:30;;;;;;;23.70;13.20;;;;;;;-2.86;59.32;103011.24;88469;1271;81557;-66
2022/03/18 04:10:42;;;;;;;39.10;19.50;;;;;;;-2.87;59.27;103006.71;88441;1271;99973;-66
2022/03/18 04:12:51;;;;;;;40.40;19.40;;;;;;;-2.89;59.28;103017.86;88445;1271;88433;-68
2022/03/18 04:15:04;;;;;;;30.70;15.70;;;;;;;-2.93;59.39;103020.08;88409;1271;95557;-64
2022/03/18 04:17:13;;;;;;;32.70;16.20;;;;;;;-2.99;59.56;103018.98;88450;1270;80843;-65
2022/03/18 04:19:22;;;;;;;27.00;13.80;;;;;;;-3.03;59.59;103022.98;88433;1271;80179;-65
2022/03/18 04:21:31;;;;;;;22.50;13.20;;;;;;;-3.09;59.68;103029.98;88445;1271;99681;-67
2022/03/18 04:23:40;;;;;;;42.20;18.90;;;;;;;-3.15;59.82;103031.21;88433;1271;86636;-66
2022/03/18 04:25:51;;;;;;;35.70;17.80;;;;;;;-3.18;59.70;103035.52;88479;1271;96190;-67
2022/03/18 04:28:00;;;;;;;28.80;14.70;;;;;;;-3.21;59.71;103041.92;88445;1271;78465;-68
2022/03/18 04:30:14;;;;;;;32.60;16.20;;;;;;;-3.23;59.73;103043.91;88481;1271;80284;-70
2022/03/18 04:32:22;;;;;;;36.50;17.00;;;;;;;-3.25;59.73;103047.31;88471;1271;98164;-69
2022/03/18 04:34:33;;;;;;;44.70;20.00;;;;;;;-3.25;60.12;103052.42;88465;1271;88182;-66
2022/03/18 04:36:45;;;;;;;31.30;16.90;;;;;;;-3.24;60.45;103052.94;88440;1271;94384;-65
2022/03/18 04:38:57;;;;;;;35.30;16.30;;;;;;;-3.25;60.31;103058.42;88459;1271;78970;-69
2022/03/18 04:41:07;;;;;;;34.40;16.40;;;;;;;-3.25;60.31;103057.33;88482;1271;81800;-68
2022/03/18 04:43:15;;;;;;;31.90;17.60;;;;;;;-3.24;60.30;103058.56;88477;1272;99769;-68
2022/03/18 04:45:25;;;;;;;29.40;16.80;;;;;;;-3.26;60.45;103066.01;88264;1271;88075;-66
2022/03/18 04:47:35;;;;;;;28.20;15.70;;;;;;;-3.29;60.54;103066.25;88477;1271;95482;-65
2022/03/18 04:49:44;;;;;;;32.80;16.10;;;;;;;-3.33;60.83;103066.17;88457;1271;78633;-66
2022/03/18 04:51:53;;;;;;;26.30;14.60;;;;;;;-3.32;60.72;103072.31;88454;1271;82484;-66
2022/03/18 04:54:02;;;;;;;34.00;16.80;;;;;;;-3.33;60.63;103074.46;88466;1271;100105;-66
2022/03/18 04:57:15;;;;;;;32.40;17.00;;;;;;;-3.34;60.93;103077.64;88449;1271;86296;-66
2022/03/18 04:58:41;;;;;;;32.90;18.00;;;;;;;-3.35;60.86;103079.42;88421;1271;93516;-65
2022/03/18 05:00:51;;;;;;;36.70;18.80;;;;;;;-3.32;61.02;103079.89;88461;1271;80570;-69
2022/03/18 05:03:01;;;;;;;33.10;16.40;;;;;;;-3.27;61.10;103078.17;88459;1271;81423;-70
2022/03/18 05:05:17;;;;;;;31.00;17.50;;;;;;;-3.20;61.17;103084.55;88473;1271;100792;-67
2022/03/18 05:07:26;;;;;;;29.90;17.10;;;;;;;-3.12;61.55;103090.35;88446;1271;88759;-66
2022/03/18 05:09:38;;;;;;;33.10;16.70;;;;;;;-3.01;61.54;103085.48;88462;1271;95669;-68
2022/03/18 05:11:48;;;;;;;26.80;14.90;;;;;;;-2.95;61.53;103085.55;88329;1271;79177;-66
2022/03/18 05:14:01;;;;;;;37.20;16.40;;;;;;;-2.90;61.14;103091.58;88454;1271;82605;-68
2022/03/18 05:16:12;;;;;;;29.40;16.10;;;;;;;-2.87;61.30;103091.34;88466;1271;97312;-66
2022/03/18 05:18:22;;;;;;;28.70;16.00;;;;;;;-2.85;61.28;103097.44;88308;1271;87628;-68
2022/03/18 05:20:32;;;;;;;37.60;18.00;;;;;;;-2.80;61.34;103091.85;88432;1271;94980;-65
2022/03/18 05:22:41;;;;;;;31.70;17.60;;;;;;;-2.72;61.39;103092.17;88441;1271;80240;-65
2022/03/18 05:24:52;;;;;;;33.20;18.30;;;;;;;-2.64;61.58;103096.20;88511;1271;82201;-68
2022/03/18 05:27:02;;;;;;;34.80;18.70;;;;;;;-2.54;61.51;103097.88;88441;1271;100340;-66
2022/03/18 05:29:11;;;;;;;37.10;18.00;;;;;;;-2.43;61.45;103096.16;88483;1271;89200;-68
2022/03/18 05:31:20;;;;;;;36.40;17.90;;;;;;;-2.32;61.23;103094.29;88455;1271;94324;-69
2022/03/18 05:33:33;;;;;;;34.40;18.50;;;;;;;-2.22;61.14;103101.23;88442;1271;78118;-71
2022/03/18 05:35:46;;;;;;;31.60;17.10;;;;;;;-2.14;61.29;103102.42;88330;1271;83341;-69
2022/03/18 05:37:55;;;;;;;28.50;16.20;;;;;;;-2.04;61.31;103104.80;88475;1271;98459;-66
2022/03/18 05:40:10;;;;;;;33.40;17.00;;;;;;;-1.94;61.00;103106.09;88467;1271;89088;-64
2022/03/18 05:42:19;;;;;;;32.30;17.40;;;;;;;-1.84;60.78;103114.82;88480;1271;95752;-65
2022/03/18 05:44:29;;;;;;;25.40;15.70;;;;;;;-1.74;60.74;103120.39;88439;1271;78447;-65
2022/03/18 05:46:39;;;;;;;29.60;16.40;;;;;;;-1.64;60.53;103119.38;88463;1271;81007;-64
2022/03/18 05:48:49;;;;;;;28.20;16.30;;;;;;;-1.56;60.38;103120.90;88454;1271;98818;-64
2022/03/18 05:51:00;;;;;;;25.80;16.40;;;;;;;-1.05;60.79;103123.36;88479;1269;88945;-64
2022/03/18 05:53:09;;;;;;;29.00;16.80;;;;;;;0.30;60.78;103123.08;88430;1271;95158;-65
2022/03/18 05:55:18;;;;;;;25.00;16.30;;;;;;;1.90;60.19;103119.90;88449;1271;77791;-65
2022/03/18 05:57:28;;;;;;;28.30;17.50;;;;;;;3.69;58.83;103117.14;88464;1270;83048;-68
2022/03/18 05:59:38;;;;;;;27.90;17.00;;;;;;;5.33;57.30;103109.82;88485;1271;97521;-65
2022/03/18 06:01:48;;;;;;;30.30;18.30;;;;;;;6.69;55.72;103110.76;88461;1271;88301;-64
2022/03/18 06:03:57;;;;;;;30.90;17.90;;;;;;;7.96;53.90;103105.93;88462;1270;93383;-65
2022/03/18 06:06:06;;;;;;;24.40;15.90;;;;;;;8.95;52.41;103106.92;88448;1271;78611;-66
2022/03/18 06:13:07;;;;;;;22.40;15.50;;;;;;;11.36;47.33;103103.23;88445;1271;87195;-65
2022/03/18 06:15:16;;;;;;;25.50;15.60;;;;;;;11.84;46.28;103108.54;88439;1271;93018;-65
2022/03/18 06:17:25;;;;;;;22.00;14.90;;;;;;;12.50;44.75;103116.55;88452;1271;80305;-66
2022/03/18 06:19:35;;;;;;;23.90;15.10;;;;;;;12.64;43.46;103117.04;88478;1271;80593;-64
2022/03/18 06:21:45;;;;;;;21.00;16.30;;;;;;;12.43;41.78;103118.65;88433;1271;97828;-63
2022/03/18 06:23:54;;;;;;;24.40;15.30;;;;;;;12.31;41.37;103122.79;88427;1271;88312;-65
2022/03/18 06:26:03;;;;;;;21.30;16.60;;;;;;;12.88;40.61;103125.10;88455;1271;94637;-67
2022/03/18 06:28:12;;;;;;;22.20;14.40;;;;;;;12.98;39.14;103128.55;88442;1271;77974;-66
2022/03/18 06:30:25;;;;;;;22.70;16.10;;;;;;;12.97;38.92;103132.63;88477;1271;83452;-65
2022/03/18 06:32:37;;;;;;;20.90;13.50;;;;;;;12.98;38.86;103129.41;88452;1272;100309;-65
2022/03/18 06:34:49;;;;;;;18.60;14.70;;;;;;;12.72;38.33;103129.79;88441;1271;88720;-66
2022/03/18 06:37:01;;;;;;;22.30;14.90;;;;;;;12.11;38.00;103132.47;88429;1271;95620;-65
2022/03/18 06:39:11;;;;;;;21.50;14.30;;;;;;;11.48;38.41;103135.56;88432;1271;78963;-65
2022/03/18 06:41:21;;;;;;;19.50;14.30;;;;;;;12.20;38.27;103136.25;88461;1271;81854;-67
2022/03/18 06:43:33;;;;;;;20.60;13.40;;;;;;;12.74;37.62;103137.92;88434;1271;99350;-66
2022/03/18 06:45:44;;;;;;;16.10;12.20;;;;;;;13.73;36.34;103129.71;88424;1271;89094;-63
2022/03/18 06:47:56;;;;;;;16.60;11.60;;;;;;;13.95;35.72;103133.81;88452;1271;92452;-63
2022/03/18 06:50:06;;;;;;;17.30;12.70;;;;;;;14.45;34.80;103127.48;88425;1271;77938;-66
2022/03/18 06:52:18;;;;;;;16.20;12.20;;;;;;;14.82;34.12;103126.67;88441;1271;79506;-67
2022/03/18 06:54:27;;;;;;;19.40;12.80;;;;;;;14.67;33.35;103127.16;88412;1269;100513;-66
2022/03/18 06:56:38;;;;;;;15.10;11.30;;;;;;;14.99;31.70;103129.23;88435;1271;86014;-66
2022/03/18 06:58:50;;;;;;;18.60;13.00;;;;;;;14.32;32.36;103129.50;88421;1270;95269;-67
2022/03/18 07:01:02;;;;;;;17.00;12.70;;;;;;;14.58;32.63;103130.27;88425;1271;80568;-63
2022/03/18 07:03:12;;;;;;;19.90;11.40;;;;;;;15.25;32.46;103134.13;88325;1271;82136;-63
2022/03/18 07:05:24;;;;;;;13.80;11.20;;;;;;;15.42;31.88;103133.11;88443;1271;97771;-63
2022/03/18 07:07:36;;;;;;;14.20;11.10;;;;;;;15.60;31.96;103133.11;88427;1271;88868;-64
2022/03/18 07:09:45;;;;;;;13.70;11.70;;;;;;;15.74;31.68;103135.83;88451;1271;95695;-67
2022/03/18 07:11:54;;;;;;;17.20;12.10;;;;;;;15.75;31.63;103141.35;88442;1271;81431;-63
2022/03/18 07:14:03;;;;;;;14.90;10.80;;;;;;;16.03;30.89;103137.16;88461;1271;80220;-63
2022/03/18 07:18:42;;;;;;;12.30;10.10;;;;;;;16.42;29.15;103143.05;88431;1271;88587;-64
2022/03/18 07:20:54;;;;;;;16.60;10.50;;;;;;;17.09;28.89;103147.00;88452;1271;95348;-68
2022/03/18 07:23:09;;;;;;;15.70;10.00;;;;;;;17.32;27.61;103149.39;88407;1271;80512;-66
2022/03/18 07:25:18;;;;;;;12.60;9.50;;;;;;;17.52;28.42;103151.56;88281;1274;82471;-65
2022/03/18 07:27:26;;;;;;;14.60;9.40;;;;;;;18.17;27.25;103145.14;88387;1271;99952;-66
2022/03/18 07:29:35;;;;;;;11.80;8.90;;;;;;;18.19;26.50;103143.80;88449;1271;88976;-63
2022/03/18 07:31:44;;;;;;;12.60;9.50;;;;;;;18.35;26.75;103142.58;88398;1271;93496;-62
2022/03/18 07:33:56;;;;;;;12.60;9.60;;;;;;;18.29;25.04;103145.23;88371;1271;79626;-63
2022/03/18 07:36:08;;;;;;;12.90;9.00;;;;;;;18.70;26.34;103145.08;88423;1271;83126;-69
2022/03/18 07:38:20;;;;;;;10.60;8.80;;;;;;;19.42;24.67;103147.56;88426;1271;100406;-67
2022/03/18 07:40:30;;;;;;;11.30;9.40;;;;;;;18.89;23.85;103149.27;88450;1271;87015;-62
2022/03/18 07:42:47;;;;;;;12.80;8.10;;;;;;;19.52;24.75;103150.06;88445;1271;94291;-62
2022/03/18 07:44:56;;;;;;;12.40;8.50;;;;;;;19.66;23.72;103151.19;88430;1271;78411;-66
2022/03/18 07:47:06;;;;;;;8.90;7.80;;;;;;;20.00;23.76;103152.65;88298;1271;81004;-68
2022/03/18 07:49:16;;;;;;;12.40;8.70;;;;;;;20.31;22.12;103151.17;88456;1271;98458;-63
2022/03/18 07:51:25;;;;;;;12.60;8.70;;;;;;;20.05;23.28;103158.14;88468;1271;88383;-62
2022/03/18 07:53:34;;;;;;;9.90;8.40;;;;;;;20.56;23.49;103155.53;88448;1271;95360;-64
2022/03/18 07:55:43;;;;;;;11.30;8.80;;;;;;;20.99;22.83;103164.27;88403;1271;79537;-63
2022/03/18 07:57:57;;;;;;;12.10;8.70;;;;;;;20.89;22.62;103164.03;88436;1271;82568;-62
2022/03/18 08:00:13;;;;;;;15.10;10.60;;;;;;;20.70;22.34;103155.80;88443;1271;98482;-67
2022/03/18 08:02:21;;;;;;;11.30;8.50;;;;;;;21.06;22.75;103160.33;88433;1270;87584;-65
2022/03/18 08:04:30;;;;;;;13.70;9.00;;;;;;;21.50;22.56;103156.19;88440;1271;93477;-66
2022/03/18 08:06:40;;;;;;;9.30;8.20;;;;;;;22.08;22.01;103159.84;88400;1271;79991;-66
2022/03/18 08:08:51;;;;;;;8.90;7.40;;;;;;;22.05;21.32;103159.98;88452;1271;80323;-66
2022/03/18 08:11:01;;;;;;;11.90;8.90;;;;;;;21.99;21.87;103162.83;88434;1271;99050;-64
2022/03/18 08:13:11;;;;;;;11.00;8.80;;;;;;;22.07;21.64;103162.82;88451;1271;88862;-63
2022/03/18 08:15:23;;;;;;;8.80;7.60;;;;;;;22.19;20.86;103159.54;88451;1271;94811;-63
2022/03/18 08:17:33;;;;;;;13.60;10.80;;;;;;;21.94;20.49;103165.36;88439;1271;78735;-64
2022/03/18 08:19:45;;;;;;;14.10;10.40;;;;;;;21.17;20.45;103168.47;88448;1271;82847;-65
2022/03/18 08:22:00;;;;;;;8.40;7.30;;;;;;;20.77;19.46;103171.23;88430;1271;99182;-67
2022/03/18 08:24:12;;;;;;;9.00;7.40;;;;;;;20.17;19.35;103172.73;88433;1271;88698;-65
2022/03/18 08:26:22;;;;;;;10.70;8.40;;;;;;;20.04;20.36;103166.10;88444;1271;93333;-64
2022/03/18 08:28:32;;;;;;;8.70;7.40;;;;;;;20.44;20.79;103167.75;88434;1269;80102;-66
2022/03/18 08:30:42;;;;;;;8.90;7.10;;;;;;;21.00;20.59;103171.87;88458;1271;82191;-66
2022/03/18 08:32:52;;;;;;;8.40;7.10;;;;;;;20.98;20.04;103170.96;88402;1271;98916;-63
2022/03/18 08:35:04;;;;;;;8.80;6.80;;;;;;;20.92;19.84;103176.87;88493;1271;87487;-65
2022/03/18 08:37:13;;;;;;;11.10;8.00;;;;;;;20.66;20.14;103174.03;88446;1271;94470;-65
2022/03/18 08:39:26;;;;;;;11.50;8.60;;;;;;;20.36;19.76;103171.78;88449;1270;80990;-63
2022/03/18 08:41:36;;;;;;;9.30;7.80;;;;;;;20.53;20.29;103175.24;88482;1271;82423;-63
2022/03/18 08:43:45;;;;;;;9.70;6.70;;;;;;;19.94;19.62;103171.53;88435;1271;99910;-62
2022/03/18 08:45:58;;;;;;;7.50;6.70;;;;;;;20.00;19.82;103178.48;88487;1269;85825;-64
2022/03/18 08:48:11;;;;;;;7.90;7.00;;;;;;;19.85;19.03;103170.64;88453;1271;94718;-64
2022/03/18 08:50:24;;;;;;;8.10;7.10;;;;;;;18.92;18.86;103175.04;88324;1271;77712;-64
2022/03/18 08:52:34;;;;;;;10.80;7.60;;;;;;;18.97;20.64;103170.13;88453;1271;82855;-63
2022/03/18 08:54:43;;;;;;;9.00;7.10;;;;;;;19.25;19.52;103176.27;88452;1271;99820;-65
2022/03/18 08:56:53;;;;;;;8.40;6.90;;;;;;;19.21;19.65;103174.41;88492;1271;88106;-67
2022/03/18 08:59:06;;;;;;;9.20;7.20;;;;;;;19.35;19.86;103176.20;88453;1269;95845;-65
2022/03/18 09:01:19;;;;;;;9.10;7.50;;;;;;;19.02;18.98;103178.60;88477;1271;78999;-65
2022/03/18 09:03:32;;;;;;;9.80;8.00;;;;;;;18.62;19.10;103176.86;88460;1271;80792;-65
2022/03/18 09:05:45;;;;;;;10.30;7.40;;;;;;;18.05;19.17;103182.27;88447;1270;99045;-62
2022/03/18 09:07:58;;;;;;;9.60;7.40;;;;;;;18.30;19.92;103176.52;88458;1270;88095;-63
2022/03/18 09:10:12;;;;;;;8.20;7.30;;;;;;;18.52;20.09;103180.63;88442;1271;94296;-78
2022/03/18 09:12:25;;;;;;;10.60;7.50;;;;;;;18.18;19.74;103181.11;88460;1270;80985;-65
2022/03/18 09:14:36;;;;;;;;;;;;;;;17.92;19.30;103185.75;88452;1271;80430;-63
2022/03/18 09:16:49;;;;;;;8.60;7.20;;;;;;;17.64;20.23;103189.38;88443;1271;99789;-64
2022/03/18 09:19:00;;;;;;;;;;;;;;;18.19;20.11;103189.94;88459;1270;88988;-63
2022/03/18 09:21:13;;;;;;;11.70;8.40;;;;;;;17.72;19.85;103192.33;88407;1271;94864;-63
2022/03/18 09:23:27;;;;;;;10.30;8.60;;;;;;;17.91;20.12;103188.26;88422;1271;78556;-63
2022/03/18 09:25:37;;;;;;;13.90;8.00;;;;;;;17.89;20.22;103188.66;88481;1271;81547;-66
2022/03/18 09:27:47;;;;;;;9.20;8.30;;;;;;;17.46;19.37;103189.60;88408;1269;99103;-66
2022/03/18 09:29:57;;;;;;;8.60;7.60;;;;;;;17.09;19.92;103189.04;88326;1271;87563;-63
2022/03/18 09:32:08;;;;;;;8.60;7.70;;;;;;;16.96;20.61;103188.66;88469;1271;95167;-62
2022/03/18 09:34:18;;;;;;;10.00;8.40;;;;;;;17.59;20.60;103183.95;88432;1271;80673;-63
2022/03/18 09:36:27;;;;;;;9.50;8.20;;;;;;;17.76;21.04;103184.83;88447;1271;80553;-63
2022/03/18 09:38:37;;;;;;;9.80;8.10;;;;;;;18.09;20.46;103183.44;88466;1269;97531;-63
2022/03/18 09:40:47;;;;;;;10.10;7.70;;;;;;;17.14;20.00;103190.49;88448;1271;88985;-63
2022/03/18 09:43:06;;;;;;;9.90;8.90;;;;;;;16.43;20.64;103182.92;88423;1271;94223;-63
2022/03/18 09:45:16;;;;;;;10.10;8.40;;;;;;;16.80;21.00;103185.09;88433;1271;77896;-63
2022/03/18 09:47:25;;;;;;;11.80;8.50;;;;;;;16.96;20.78;103184.03;88434;1270;81731;-65
2022/03/18 09:49:38;;;;;;;12.40;8.40;;;;;;;16.91;21.23;103186.08;88437;1269;100111;-62
2022/03/18 09:51:51;;;;;;;11.90;8.40;;;;;;;16.90;21.38;103186.52;88460;1271;88154;-62
2022/03/18 09:54:06;;;;;;;12.20;8.60;;;;;;;16.18;21.12;103182.55;88436;1271;95308;-62
2022/03/18 09:56:15;;;;;;;11.80;8.30;;;;;;;15.24;21.09;103190.65;88438;1271;78677;-61
2022/03/18 09:58:25;;;;;;;13.70;9.40;;;;;;;14.52;21.64;103183.73;88425;1271;83311;-62
2022/03/18 10:00:34;;;;;;;12.80;8.60;;;;;;;14.00;21.98;103188.80;88486;1271;100315;-64
2022/03/18 10:02:44;;;;;;;10.90;7.40;;;;;;;13.33;22.44;103194.48;88464;1271;87635;-62
2022/03/18 10:05:01;;;;;;;11.00;8.30;;;;;;;12.86;23.08;103191.66;88462;1269;95053;-64
2022/03/18 10:07:18;;;;;;;11.00;8.30;;;;;;;12.76;23.57;103196.23;88464;1270;79173;-67
2022/03/18 10:09:33;;;;;;;12.40;7.80;;;;;;;12.33;23.38;103194.02;88465;1271;81115;-61
2022/03/18 10:11:48;;;;;;;13.10;8.20;;;;;;;11.85;23.82;103192.20;88314;1271;97762;-63
2022/03/18 10:14:01;;;;;;;9.60;7.70;;;;;;;11.48;24.01;103201.44;88397;1271;89208;-67
2022/03/18 10:16:11;;;;;;;11.40;7.70;;;;;;;10.87;24.43;103200.14;88475;1270;95710;-67